Time;durP1;ratioP1;P1;durP2;ratioP2;P2;SDS_P1;SDS_P2;PMS_P1;PMS_P2;Temp;Humidity;BMP_temperature;BMP_pressure;BME280_temperature;BME280_humidity;BME280_pressure;Samples;Min_cycle;Max_cycle;Signal;HPM_P1;HPM_P2
2021/08/10 00:01:48;;;;;;;18.43;17.50;;;;;;;;;;5036058;28;20433;-93
2021/08/10 00:04:17;;;;;;;18.20;17.17;;;;;;;;;;5036476;28;20419;-92
2021/08/10 00:06:44;;;;;;;18.67;17.70;;;;;;;;;;5036196;28;20487;-93
2021/08/10 00:09:11;;;;;;;18.83;17.93;;;;;;;;;;5036180;28;20422;-93
2021/08/10 00:11:39;;;;;;;19.10;18.10;;;;;;;;;;5034892;28;20443;-93
2021/08/10 00:14:06;;;;;;;18.70;17.80;;;;;;;;;;5035683;28;20441;-92
2021/08/10 00:16:33;;;;;;;18.77;17.80;;;;;;;;;;5036017;28;20416;-93
2021/08/10 00:19:01;;;;;;;19.03;18.03;;;;;;;;;;5035843;28;20447;-92
2021/08/10 00:21:30;;;;;;;18.47;17.47;;;;;;;;;;5035602;28;20436;-92
2021/08/10 00:23:57;;;;;;;18.40;17.50;;;;;;;;;;5036081;28;20438;-92
2021/08/10 00:26:24;;;;;;;18.93;18.03;;;;;;;;;;5036469;28;20456;-93
2021/08/10 00:28:52;;;;;;;18.33;17.30;;;;;;;;;;5035467;28;20932;-92
2021/08/10 00:31:19;;;;;;;17.83;16.73;;;;;;;;;;5035731;28;20962;-90
2021/08/10 00:33:46;;;;;;;18.27;17.27;;;;;;;;;;5035384;28;20408;-92
2021/08/10 00:36:14;;;;;;;18.20;17.20;;;;;;;;;;5035333;28;20457;-92
2021/08/10 00:38:43;;;;;;;17.80;16.80;;;;;;;;;;5034448;28;20438;-93
2021/08/10 00:41:10;;;;;;;18.40;17.30;;;;;;;;;;5035158;28;20407;-92
2021/08/10 00:43:39;;;;;;;17.67;16.67;;;;;;;;;;5035352;28;20444;-92
2021/08/10 00:46:08;;;;;;;18.93;17.93;;;;;;;;;;5035530;28;20779;-93
2021/08/10 00:48:36;;;;;;;18.70;17.50;;;;;;;;;;5034751;28;20445;-92
2021/08/10 00:51:05;;;;;;;17.33;16.43;;;;;;;;;;5035377;28;20436;-93
2021/08/10 00:53:32;;;;;;;18.53;17.50;;;;;;;;;;5035389;28;20815;-92
2021/08/10 00:56:01;;;;;;;18.27;17.17;;;;;;;;;;5034880;28;20471;-93
2021/08/10 00:58:30;;;;;;;18.20;16.90;;;;;;;;;;5035601;28;20429;-92
2021/08/10 01:00:58;;;;;;;17.97;16.97;;;;;;;;;;5035085;28;20461;-92
2021/08/10 01:03:26;;;;;;;18.63;17.73;;;;;;;;;;5034632;28;20889;-92
2021/08/10 01:05:53;;;;;;;17.57;16.67;;;;;;;;;;5034885;28;20969;-92
2021/08/10 01:08:25;;;;;;;17.00;16.20;;;;;;;;;;5035350;28;20407;-92
2021/08/10 01:10:56;;;;;;;18.50;17.40;;;;;;;;;;5033717;28;20429;-92
2021/08/10 01:13:30;;;;;;;18.03;17.07;;;;;;;;;;5035452;28;20439;-92
2021/08/10 01:16:00;;;;;;;18.00;17.00;;;;;;;;;;5034835;28;20462;-92
2021/08/10 01:18:30;;;;;;;18.13;17.23;;;;;;;;;;5033904;28;20450;-92
2021/08/10 01:21:11;;;;;;;17.83;16.83;;;;;;;;;;5034746;28;20445;-92
2021/08/10 01:23:39;;;;;;;17.90;17.00;;;;;;;;;;5033764;28;20440;-92
2021/08/10 01:26:18;;;;;;;18.53;17.50;;;;;;;;;;5034993;28;20419;-93
2021/08/10 01:28:53;;;;;;;18.30;17.40;;;;;;;;;;5034711;28;20410;-92
2021/08/10 01:31:30;;;;;;;18.13;17.23;;;;;;;;;;5034322;28;20411;-92
2021/08/10 01:34:02;;;;;;;18.70;17.73;;;;;;;;;;5034309;28;20407;-92
2021/08/10 01:36:31;;;;;;;19.80;18.50;;;;;;;;;;5034604;28;20466;-92
2021/08/10 01:39:01;;;;;;;17.93;16.93;;;;;;;;;;5034249;28;20455;-92
2021/08/10 01:41:30;;;;;;;17.80;16.87;;;;;;;;;;5034482;28;20423;-92
2021/08/10 01:43:58;;;;;;;18.20;17.30;;;;;;;;;;5034745;28;20427;-92
2021/08/10 01:46:27;;;;;;;18.13;17.13;;;;;;;;;;5034645;28;20452;-93
2021/08/10 01:48:57;;;;;;;18.93;17.83;;;;;;;;;;5034528;28;20468;-92
2021/08/10 01:51:26;;;;;;;17.97;17.17;;;;;;;;;;5034157;28;20456;-92
2021/08/10 01:53:54;;;;;;;17.00;16.10;;;;;;;;;;5034482;28;20415;-92
2021/08/10 01:56:21;;;;;;;18.40;17.40;;;;;;;;;;5033877;28;20473;-93
2021/08/10 01:58:49;;;;;;;17.70;16.80;;;;;;;;;;5033994;28;20430;-92
2021/08/10 02:01:17;;;;;;;18.03;17.03;;;;;;;;;;5034632;28;20431;-92
2021/08/10 02:03:46;;;;;;;17.60;16.60;;;;;;;;;;5034252;28;20436;-92
2021/08/10 02:06:16;;;;;;;17.37;16.47;;;;;;;;;;5034305;28;20507;-92
2021/08/10 02:08:44;;;;;;;18.60;17.47;;;;;;;;;;5034003;28;20444;-92
2021/08/10 02:11:11;;;;;;;18.07;17.07;;;;;;;;;;5034018;28;20453;-92
2021/08/10 02:13:39;;;;;;;19.47;18.20;;;;;;;;;;5034066;28;20466;-92
2021/08/10 02:16:08;;;;;;;18.03;17.13;;;;;;;;;;5037971;28;20479;-92
2021/08/10 02:18:36;;;;;;;17.80;16.90;;;;;;;;;;5037841;28;20987;-92
2021/08/10 02:21:04;;;;;;;18.87;17.67;;;;;;;;;;5037986;28;20424;-92
2021/08/10 02:23:34;;;;;;;18.27;17.17;;;;;;;;;;5038268;28;20421;-91
2021/08/10 02:26:03;;;;;;;18.10;17.10;;;;;;;;;;5037850;28;20421;-92
2021/08/10 02:28:31;;;;;;;19.03;17.93;;;;;;;;;;5037491;28;20847;-93
2021/08/10 02:31:00;;;;;;;17.73;16.83;;;;;;;;;;5037771;28;20430;-92
2021/08/10 02:33:28;;;;;;;20.23;18.93;;;;;;;;;;5037229;28;20445;-92
2021/08/10 02:35:57;;;;;;;18.80;17.90;;;;;;;;;;5038156;28;20447;-93
2021/08/10 02:38:25;;;;;;;18.27;17.33;;;;;;;;;;5037830;28;20435;-92
2021/08/10 02:40:56;;;;;;;17.47;16.67;;;;;;;;;;5036582;28;20426;-92
2021/08/10 02:43:26;;;;;;;18.40;17.50;;;;;;;;;;5036742;28;20506;-91
2021/08/10 02:45:53;;;;;;;18.30;17.20;;;;;;;;;;5037808;28;20396;-91
2021/08/10 02:48:20;;;;;;;18.43;17.50;;;;;;;;;;5037432;28;20443;-92
2021/08/10 02:50:48;;;;;;;18.43;17.47;;;;;;;;;;5036271;28;20423;-92
2021/08/10 02:53:16;;;;;;;17.67;16.70;;;;;;;;;;5037624;28;20424;-92
2021/08/10 02:55:47;;;;;;;18.33;17.23;;;;;;;;;;5037498;28;20477;-91
2021/08/10 02:58:20;;;;;;;18.43;17.53;;;;;;;;;;5037187;28;20421;-92
2021/08/10 03:00:50;;;;;;;18.43;17.50;;;;;;;;;;5037197;28;20437;-91
2021/08/10 03:03:19;;;;;;;18.80;17.70;;;;;;;;;;5037545;28;20893;-91
2021/08/10 03:05:48;;;;;;;18.40;17.40;;;;;;;;;;5037500;28;20507;-91
2021/08/10 03:08:21;;;;;;;19.63;18.23;;;;;;;;;;5037193;28;20427;-92
2021/08/10 03:10:50;;;;;;;18.57;17.50;;;;;;;;;;5037533;28;20434;-91
2021/08/10 03:13:19;;;;;;;18.40;17.40;;;;;;;;;;5037016;28;20423;-91
2021/08/10 03:15:48;;;;;;;18.40;17.40;;;;;;;;;;5036272;28;20459;-92
2021/08/10 03:18:17;;;;;;;18.13;17.23;;;;;;;;;;5037375;28;20810;-91
2021/08/10 03:20:45;;;;;;;17.70;16.80;;;;;;;;;;5036704;28;20411;-91
2021/08/10 03:23:14;;;;;;;18.40;17.43;;;;;;;;;;5036840;28;20443;-91
2021/08/10 03:25:42;;;;;;;18.10;17.20;;;;;;;;;;5035458;28;20443;-91
2021/08/10 03:28:10;;;;;;;18.37;17.47;;;;;;;;;;5037163;28;20413;-91
2021/08/10 03:30:40;;;;;;;19.40;18.20;;;;;;;;;;5036712;28;20904;-91
2021/08/10 03:33:07;;;;;;;19.07;17.67;;;;;;;;;;5036631;28;20935;-91
2021/08/10 03:35:35;;;;;;;18.93;17.83;;;;;;;;;;5036908;28;20471;-91
2021/08/10 03:38:03;;;;;;;18.70;17.80;;;;;;;;;;5036582;28;20426;-91
2021/08/10 03:40:30;;;;;;;18.73;17.77;;;;;;;;;;5036639;28;20471;-91
2021/08/10 03:42:58;;;;;;;18.70;17.77;;;;;;;;;;5036167;28;20447;-92
2021/08/10 03:45:26;;;;;;;18.87;17.97;;;;;;;;;;5037013;28;20418;-92
2021/08/10 03:47:56;;;;;;;17.83;16.87;;;;;;;;;;5037356;28;20447;-92
2021/08/10 03:50:23;;;;;;;17.50;16.70;;;;;;;;;;5036994;28;20435;-92
2021/08/10 03:52:51;;;;;;;18.93;17.37;;;;;;;;;;5036865;28;20426;-91
2021/08/10 03:55:19;;;;;;;18.47;17.50;;;;;;;;;;5035785;28;20892;-92
2021/08/10 03:57:47;;;;;;;18.60;17.60;;;;;;;;;;5036966;28;20426;-91
2021/08/10 04:00:16;;;;;;;17.60;16.60;;;;;;;;;;5036405;28;20469;-92
2021/08/10 04:02:44;;;;;;;18.80;17.73;;;;;;;;;;5036421;28;20913;-91
2021/08/10 04:05:13;;;;;;;18.80;17.80;;;;;;;;;;5036412;28;20438;-91
2021/08/10 04:07:41;;;;;;;17.83;16.97;;;;;;;;;;5035860;28;20458;-91
2021/08/10 04:10:09;;;;;;;17.80;16.63;;;;;;;;;;5036091;28;20939;-91
2021/08/10 04:12:37;;;;;;;22.73;20.83;;;;;;;;;;5036150;28;20405;-92
2021/08/10 04:15:04;;;;;;;18.50;17.30;;;;;;;;;;5035934;28;20435;-92
2021/08/10 04:17:33;;;;;;;18.07;16.97;;;;;;;;;;5034791;28;20465;-92
2021/08/10 04:20:00;;;;;;;18.47;17.43;;;;;;;;;;5036646;28;20414;-92
2021/08/10 04:22:29;;;;;;;18.00;17.10;;;;;;;;;;5035683;28;20433;-92
2021/08/10 04:24:56;;;;;;;17.70;16.63;;;;;;;;;;5035956;28;20424;-92
2021/08/10 04:27:24;;;;;;;17.90;16.63;;;;;;;;;;5036078;28;20429;-91
2021/08/10 04:29:51;;;;;;;17.90;17.00;;;;;;;;;;5035335;28;20440;-92
2021/08/10 04:32:18;;;;;;;405.45;307.33;;;;;;;;;;5035719;28;20415;-92
2021/08/10 04:34:46;;;;;;;298.75;189.48;;;;;;;;;;5035704;28;20605;-92
2021/08/10 04:37:13;;;;;;;375.42;348.30;;;;;;;;;;5035124;28;20228;-92
2021/08/10 04:39:42;;;;;;;18.90;17.90;;;;;;;;;;5035206;28;20281;-92
2021/08/10 04:42:10;;;;;;;18.47;17.57;;;;;;;;;;5035270;28;20419;-91
2021/08/10 04:44:37;;;;;;;17.87;16.97;;;;;;;;;;5035977;28;20447;-92
2021/08/10 04:47:04;;;;;;;18.47;17.37;;;;;;;;;;5035565;28;20456;-92
2021/08/10 04:49:33;;;;;;;17.50;16.60;;;;;;;;;;5036154;28;20463;-91
2021/08/10 04:52:01;;;;;;;18.83;17.73;;;;;;;;;;5035023;28;20468;-92
2021/08/10 04:54:28;;;;;;;17.97;17.10;;;;;;;;;;5035286;28;20415;-91
2021/08/10 04:56:57;;;;;;;17.70;16.80;;;;;;;;;;5035185;28;20477;-92
2021/08/10 04:59:24;;;;;;;18.80;17.80;;;;;;;;;;5035145;28;20422;-92
2021/08/10 05:01:52;;;;;;;18.90;18.00;;;;;;;;;;5033804;28;20436;-92
2021/08/10 05:04:19;;;;;;;18.47;17.47;;;;;;;;;;5034873;28;20468;-91
2021/08/10 05:06:47;;;;;;;18.67;17.53;;;;;;;;;;5034738;28;20480;-92
2021/08/10 05:09:14;;;;;;;18.87;17.73;;;;;;;;;;5035265;28;20416;-91
2021/08/10 05:11:42;;;;;;;19.10;17.93;;;;;;;;;;5034841;28;20444;-92
2021/08/10 05:14:10;;;;;;;19.30;18.13;;;;;;;;;;5034300;28;20423;-92
2021/08/10 05:16:38;;;;;;;20.03;18.10;;;;;;;;;;5034652;28;20450;-91
2021/08/10 05:19:05;;;;;;;19.90;18.90;;;;;;;;;;5034603;28;20459;-91
2021/08/10 05:21:32;;;;;;;19.60;18.50;;;;;;;;;;5034866;28;20444;-91
2021/08/10 05:24:00;;;;;;;19.73;18.53;;;;;;;;;;5035569;28;20434;-89
2021/08/10 05:26:27;;;;;;;19.70;18.40;;;;;;;;;;5035028;28;20792;-90
2021/08/10 05:28:54;;;;;;;19.20;18.10;;;;;;;;;;5034803;28;20430;-89
2021/08/10 05:31:23;;;;;;;18.60;17.60;;;;;;;;;;5034600;28;20410;-89
2021/08/10 05:33:51;;;;;;;19.57;18.47;;;;;;;;;;5034465;28;20437;-94
2021/08/10 05:36:19;;;;;;;20.00;18.90;;;;;;;;;;5034802;28;20476;-94
2021/08/10 05:38:49;;;;;;;18.97;17.80;;;;;;;;;;5034346;28;20425;-93
2021/08/10 05:41:17;;;;;;;19.77;18.70;;;;;;;;;;5034535;28;20477;-93
2021/08/10 05:43:44;;;;;;;18.87;17.87;;;;;;;;;;5034660;28;20444;-94
2021/08/10 05:46:12;;;;;;;19.47;18.03;;;;;;;;;;5034651;28;20404;-93
2021/08/10 05:48:40;;;;;;;19.93;18.73;;;;;;;;;;5034193;28;20460;-93
2021/08/10 05:51:08;;;;;;;19.93;18.83;;;;;;;;;;5033825;28;20419;-93
2021/08/10 05:53:36;;;;;;;19.83;18.73;;;;;;;;;;5034497;28;20433;-93
2021/08/10 05:56:04;;;;;;;20.60;19.03;;;;;;;;;;5034056;28;20428;-93
2021/08/10 05:58:31;;;;;;;20.13;18.93;;;;;;;;;;5034891;28;20784;-94
2021/08/10 06:00:58;;;;;;;19.80;18.63;;;;;;;;;;5034039;28;20451;-93
2021/08/10 06:03:26;;;;;;;21.23;20.07;;;;;;;;;;5035052;28;20451;-92
2021/08/10 06:05:55;;;;;;;20.17;18.97;;;;;;;;;;5034008;28;20488;-93
2021/08/10 06:08:22;;;;;;;20.90;19.63;;;;;;;;;;5034451;28;20421;-93
2021/08/10 06:10:49;;;;;;;21.93;20.43;;;;;;;;;;5034207;28;20424;-95
2021/08/10 06:13:17;;;;;;;20.00;18.87;;;;;;;;;;5033124;28;20835;-92
2021/08/10 06:15:44;;;;;;;20.37;19.27;;;;;;;;;;5034123;28;20540;-92
2021/08/10 06:18:11;;;;;;;21.40;19.77;;;;;;;;;;5033700;28;20508;-92
2021/08/10 06:20:39;;;;;;;21.00;19.70;;;;;;;;;;5033879;28;20436;-92
2021/08/10 06:23:08;;;;;;;21.77;20.37;;;;;;;;;;5034246;28;20432;-88
2021/08/10 06:25:36;;;;;;;21.53;20.13;;;;;;;;;;5034497;28;20414;-94
2021/08/10 06:28:03;;;;;;;21.67;20.37;;;;;;;;;;5034450;28;20889;-94
2021/08/10 06:30:30;;;;;;;22.30;20.90;;;;;;;;;;5033930;28;20456;-94
2021/08/10 06:32:58;;;;;;;22.53;20.73;;;;;;;;;;5033881;28;20758;-95
2021/08/10 06:35:25;;;;;;;22.10;20.70;;;;;;;;;;5033939;28;20475;-94
2021/08/10 06:37:53;;;;;;;22.60;21.20;;;;;;;;;;5034009;28;20835;-95
2021/08/10 06:40:22;;;;;;;21.80;20.20;;;;;;;;;;5034136;28;20439;-95
2021/08/10 06:42:49;;;;;;;21.83;20.50;;;;;;;;;;5034272;28;20466;-95
2021/08/10 06:45:16;;;;;;;21.70;20.30;;;;;;;;;;5034135;28;20427;-96
2021/08/10 06:47:44;;;;;;;21.33;19.40;;;;;;;;;;5034298;28;20740;-95
2021/08/10 06:50:12;;;;;;;20.27;19.07;;;;;;;;;;5032513;28;20435;-96
2021/08/10 06:52:39;;;;;;;21.30;19.83;;;;;;;;;;5033690;28;20416;-95
2021/08/10 06:55:07;;;;;;;19.53;18.43;;;;;;;;;;5034307;28;20800;-94
2021/08/10 06:57:38;;;;;;;20.53;19.33;;;;;;;;;;5033571;28;20494;-94
2021/08/10 07:00:06;;;;;;;21.10;19.80;;;;;;;;;;5033847;28;20445;-95
2021/08/10 07:02:33;;;;;;;19.57;18.20;;;;;;;;;;5036716;28;20884;-95
2021/08/10 07:05:01;;;;;;;18.77;17.67;;;;;;;;;;5037591;28;20430;-94
2021/08/10 07:07:28;;;;;;;18.87;17.87;;;;;;;;;;5036229;28;20458;-96
2021/08/10 07:09:56;;;;;;;19.30;18.00;;;;;;;;;;5037450;28;20414;-96
2021/08/10 07:12:23;;;;;;;20.20;19.10;;;;;;;;;;5037229;28;20423;-96
2021/08/10 07:14:52;;;;;;;20.10;18.80;;;;;;;;;;5035939;28;20974;-96
2021/08/10 07:17:20;;;;;;;19.90;18.73;;;;;;;;;;5036333;28;20457;-88
2021/08/10 07:19:47;;;;;;;20.97;19.70;;;;;;;;;;5037543;28;20606;-96
2021/08/10 07:22:15;;;;;;;20.33;19.00;;;;;;;;;;5037425;28;20937;-96
2021/08/10 07:24:42;;;;;;;19.90;18.80;;;;;;;;;;5037185;28;20770;-96
2021/08/10 07:27:09;;;;;;;19.93;18.60;;;;;;;;;;5037308;28;20793;-96
2021/08/10 07:29:37;;;;;;;19.90;18.77;;;;;;;;;;5037378;28;20466;-96
2021/08/10 07:32:06;;;;;;;20.10;18.80;;;;;;;;;;5037300;28;20452;-96
2021/08/10 07:34:34;;;;;;;19.57;18.57;;;;;;;;;;5037294;28;20435;-96
2021/08/10 07:37:01;;;;;;;19.80;18.50;;;;;;;;;;5037211;28;20459;-95
2021/08/10 07:39:28;;;;;;;18.93;17.90;;;;;;;;;;5037079;28;20432;-96
2021/08/10 07:41:56;;;;;;;19.40;18.30;;;;;;;;;;5039396;28;20453;-92
2021/08/10 07:44:23;;;;;;;19.43;18.23;;;;;;;;;;5053012;28;20429;-92
2021/08/10 07:46:51;;;;;;;19.30;18.30;;;;;;;;;;5058231;28;20481;-94
2021/08/10 07:49:20;;;;;;;19.83;18.57;;;;;;;;;;5057838;28;20435;-93
2021/08/10 07:51:47;;;;;;;19.70;18.53;;;;;;;;;;5057314;28;20422;-96
2021/08/10 07:54:15;;;;;;;19.30;18.10;;;;;;;;;;5058139;28;20931;-92
2021/08/10 07:56:42;;;;;;;19.27;18.17;;;;;;;;;;5063736;28;20497;-96
2021/08/10 07:59:10;;;;;;;19.33;18.03;;;;;;;;;;5063210;28;20401;-95
2021/08/10 08:01:37;;;;;;;19.03;18.13;;;;;;;;;;5059600;28;20429;-94
2021/08/10 08:04:05;;;;;;;18.33;17.43;;;;;;;;;;5056993;28;20417;-96
2021/08/10 08:06:34;;;;;;;18.60;17.60;;;;;;;;;;5056752;28;20450;-96
2021/08/10 08:09:02;;;;;;;20.00;18.90;;;;;;;;;;5057492;28;20427;-95
2021/08/10 08:11:29;;;;;;;19.77;18.57;;;;;;;;;;5058331;28;20467;-95
2021/08/10 08:13:57;;;;;;;19.60;18.40;;;;;;;;;;5065281;28;20422;-96
2021/08/10 08:16:25;;;;;;;20.87;19.80;;;;;;;;;;5064445;28;20447;-96
2021/08/10 08:18:52;;;;;;;20.30;19.20;;;;;;;;;;5058998;28;20477;-92
2021/08/10 08:21:20;;;;;;;19.97;18.87;;;;;;;;;;5057209;28;20426;-92
2021/08/10 08:23:48;;;;;;;20.43;19.33;;;;;;;;;;5056400;28;20440;-91
2021/08/10 08:26:16;;;;;;;19.53;18.43;;;;;;;;;;5057115;28;20418;-88
2021/08/10 08:28:43;;;;;;;20.23;18.93;;;;;;;;;;5055806;28;20420;-92
2021/08/10 08:31:10;;;;;;;19.27;18.23;;;;;;;;;;5055756;28;20467;-91
2021/08/10 08:33:38;;;;;;;20.30;19.17;;;;;;;;;;5056339;28;20414;-91
2021/08/10 08:36:05;;;;;;;19.43;18.30;;;;;;;;;;5055519;28;20405;-91
2021/08/10 08:38:33;;;;;;;20.20;19.00;;;;;;;;;;5055319;28;20458;-92
2021/08/10 08:41:02;;;;;;;19.77;18.67;;;;;;;;;;5055747;28;20459;-92
2021/08/10 08:43:29;;;;;;;19.83;18.70;;;;;;;;;;5055929;28;20453;-91
2021/08/10 08:45:56;;;;;;;20.33;19.13;;;;;;;;;;5056825;28;20459;-95
2021/08/10 08:48:25;;;;;;;19.97;18.87;;;;;;;;;;5056009;28;20430;-91
2021/08/10 08:50:53;;;;;;;20.90;19.50;;;;;;;;;;5055783;28;20424;-94
2021/08/10 08:53:20;;;;;;;20.50;19.20;;;;;;;;;;5055211;28;20815;-93
2021/08/10 08:55:49;;;;;;;20.70;19.50;;;;;;;;;;5059281;28;20422;-94
2021/08/10 08:58:17;;;;;;;20.13;19.03;;;;;;;;;;5056413;28;20488;-92
2021/08/10 09:00:45;;;;;;;19.67;18.47;;;;;;;;;;5055199;28;20437;-93
2021/08/10 09:03:12;;;;;;;20.30;19.20;;;;;;;;;;5055428;28;20498;-92
2021/08/10 09:05:40;;;;;;;21.40;19.77;;;;;;;;;;5055062;28;20431;-92
2021/08/10 09:08:27;;;;;;;21.27;20.07;;;;;;;;;;5055123;28;20955;-93
2021/08/10 09:10:55;;;;;;;21.30;20.00;;;;;;;;;;5054279;28;20459;-95
2021/08/10 09:13:23;;;;;;;20.47;19.37;;;;;;;;;;5055166;28;20420;-93
2021/08/10 09:15:51;;;;;;;19.77;18.67;;;;;;;;;;5053880;28;20443;-94
2021/08/10 09:18:20;;;;;;;20.53;19.33;;;;;;;;;;5055950;28;20503;-95
2021/08/10 09:21:00;;;;;;;20.43;19.23;;;;;;;;;;5056009;28;20423;-93
2021/08/10 09:23:37;;;;;;;20.90;19.70;;;;;;;;;;5054702;28;20415;-89
2021/08/10 09:26:04;;;;;;;21.20;19.90;;;;;;;;;;5054374;28;20460;-91
2021/08/10 09:28:35;;;;;;;21.40;20.10;;;;;;;;;;5056280;28;20419;-92
2021/08/10 09:31:17;;;;;;;22.40;20.80;;;;;;;;;;5055648;28;20459;-91
2021/08/10 09:33:44;;;;;;;20.77;19.47;;;;;;;;;;5054514;28;20426;-88
2021/08/10 09:36:20;;;;;;;20.53;19.40;;;;;;;;;;5055178;28;20418;-93
2021/08/10 09:38:48;;;;;;;20.83;19.57;;;;;;;;;;5054702;28;20458;-95
2021/08/10 09:41:17;;;;;;;21.90;20.50;;;;;;;;;;5057039;28;20441;-91
2021/08/10 09:43:49;;;;;;;20.53;19.50;;;;;;;;;;5055152;28;20464;-96
2021/08/10 09:46:18;;;;;;;22.00;20.70;;;;;;;;;;5056100;28;20443;-96
2021/08/10 09:48:53;;;;;;;21.37;20.17;;;;;;;;;;5056684;28;20465;-95
2021/08/10 09:51:22;;;;;;;21.17;19.90;;;;;;;;;;5055403;28;20414;-91
2021/08/10 09:53:56;;;;;;;20.57;19.37;;;;;;;;;;5054680;28;20898;-90
2021/08/10 09:56:37;;;;;;;21.63;20.27;;;;;;;;;;5054755;28;20431;-89
2021/08/10 09:59:06;;;;;;;21.83;20.43;;;;;;;;;;5054202;28;20462;-93
2021/08/10 10:01:35;;;;;;;22.40;20.97;;;;;;;;;;5055050;28;20396;-86
2021/08/10 10:04:13;;;;;;;22.27;20.87;;;;;;;;;;5054760;28;20433;-94
2021/08/10 10:06:41;;;;;;;21.67;20.30;;;;;;;;;;5054454;28;20499;-93
2021/08/10 10:09:08;;;;;;;21.63;20.30;;;;;;;;;;5054294;28;20447;-90
2021/08/10 10:11:37;;;;;;;22.20;20.90;;;;;;;;;;5054767;28;20780;-89
2021/08/10 10:14:05;;;;;;;22.50;21.17;;;;;;;;;;5054159;28;20442;-93
2021/08/10 10:16:34;;;;;;;22.37;20.97;;;;;;;;;;5052891;28;20423;-90
2021/08/10 10:19:05;;;;;;;23.27;21.97;;;;;;;;;;5053819;28;20462;-90
2021/08/10 10:21:32;;;;;;;22.77;21.37;;;;;;;;;;5054327;28;20437;-90
2021/08/10 10:24:02;;;;;;;22.00;20.70;;;;;;;;;;5054232;28;20419;-90
2021/08/10 10:26:31;;;;;;;22.33;21.00;;;;;;;;;;5054655;28;20455;-90
2021/08/10 10:28:59;;;;;;;23.00;21.50;;;;;;;;;;5053684;28;20437;-89
2021/08/10 10:31:27;;;;;;;23.40;22.00;;;;;;;;;;5054350;28;20455;-89
2021/08/10 10:33:56;;;;;;;22.10;20.90;;;;;;;;;;5054010;28;20444;-90
2021/08/10 10:36:24;;;;;;;22.73;21.40;;;;;;;;;;5054978;28;20505;-90
2021/08/10 10:38:54;;;;;;;21.13;19.90;;;;;;;;;;5057599;28;20478;-90
2021/08/10 10:41:22;;;;;;;23.30;21.70;;;;;;;;;;5057833;28;20455;-89
2021/08/10 10:43:52;;;;;;;22.87;21.50;;;;;;;;;;5056657;28;20472;-90
2021/08/10 10:46:27;;;;;;;22.47;21.07;;;;;;;;;;5058427;28;20532;-90
2021/08/10 10:48:56;;;;;;;23.13;21.70;;;;;;;;;;5057512;28;20448;-90
2021/08/10 10:51:25;;;;;;;23.47;22.07;;;;;;;;;;5058133;28;20441;-90
2021/08/10 10:53:52;;;;;;;23.17;21.73;;;;;;;;;;5057527;28;20410;-90
2021/08/10 10:56:33;;;;;;;22.73;21.33;;;;;;;;;;5058098;28;20429;-90
2021/08/10 10:59:15;;;;;;;23.47;21.97;;;;;;;;;;5057299;28;20484;-90
2021/08/10 11:01:42;;;;;;;23.23;21.93;;;;;;;;;;5057413;28;20481;-90
2021/08/10 11:04:12;;;;;;;24.77;23.27;;;;;;;;;;5057527;28;20787;-89
2021/08/10 11:06:43;;;;;;;24.70;23.20;;;;;;;;;;5055757;28;20452;-89
2021/08/10 11:09:11;;;;;;;22.90;21.47;;;;;;;;;;5057376;28;20416;-91
2021/08/10 11:11:53;;;;;;;22.40;21.10;;;;;;;;;;5057081;28;20441;-90
2021/08/10 11:14:38;;;;;;;22.63;21.23;;;;;;;;;;5057909;28;20456;-90
2021/08/10 11:17:12;;;;;;;22.77;21.57;;;;;;;;;;5056887;28;20841;-91
2021/08/10 11:19:41;;;;;;;23.27;21.87;;;;;;;;;;5057139;28;20485;-90
2021/08/10 11:22:30;;;;;;;23.50;22.10;;;;;;;;;;5056825;28;20449;-91
2021/08/10 11:25:01;;;;;;;22.57;21.33;;;;;;;;;;5051439;28;20515;-90
2021/08/10 11:27:37;;;;;;;23.10;21.70;;;;;;;;;;5056657;28;20551;-91
2021/08/10 11:30:06;;;;;;;22.13;20.80;;;;;;;;;;5055574;28;20456;-95
2021/08/10 11:32:38;;;;;;;23.20;21.90;;;;;;;;;;5056612;28;20942;-91
2021/08/10 11:35:24;;;;;;;23.27;21.80;;;;;;;;;;5057353;28;20416;-91
2021/08/10 11:38:24;;;;;;;23.27;21.87;;;;;;;;;;5057548;28;20417;-91
2021/08/10 11:40:55;;;;;;;23.13;21.83;;;;;;;;;;5056364;28;20421;-91
2021/08/10 11:43:23;;;;;;;22.97;21.57;;;;;;;;;;5056588;28;20436;-91
2021/08/10 11:45:50;;;;;;;23.33;21.73;;;;;;;;;;5056740;28;20401;-91
2021/08/10 11:48:22;;;;;;;23.60;22.03;;;;;;;;;;5049068;28;20429;-90
2021/08/10 11:50:50;;;;;;;23.27;21.80;;;;;;;;;;5036443;28;20508;-91
2021/08/10 11:53:31;;;;;;;23.23;21.73;;;;;;;;;;5036480;28;20911;-91
2021/08/10 11:55:58;;;;;;;22.60;21.23;;;;;;;;;;5036620;28;20489;-91
2021/08/10 11:58:41;;;;;;;22.17;20.67;;;;;;;;;;5035251;28;20468;-91
2021/08/10 12:01:08;;;;;;;23.60;22.10;;;;;;;;;;5036350;28;20407;-90
2021/08/10 12:03:35;;;;;;;23.20;21.80;;;;;;;;;;5037014;28;20891;-91
2021/08/10 12:06:03;;;;;;;23.87;22.40;;;;;;;;;;5035995;28;20464;-91
2021/08/10 12:08:32;;;;;;;22.20;20.80;;;;;;;;;;5036322;28;20438;-91
2021/08/10 12:10:59;;;;;;;22.30;21.00;;;;;;;;;;5036294;28;20482;-91
2021/08/10 12:13:29;;;;;;;22.63;21.23;;;;;;;;;;5037068;28;20461;-91
2021/08/10 12:15:56;;;;;;;23.57;22.07;;;;;;;;;;5036730;28;20437;-92
2021/08/10 12:18:25;;;;;;;24.43;22.93;;;;;;;;;;5035523;28;20472;-91
2021/08/10 12:20:57;;;;;;;23.90;22.37;;;;;;;;;;5036103;28;20424;-91
2021/08/10 12:23:24;;;;;;;23.33;21.83;;;;;;;;;;5035901;28;20899;-91
2021/08/10 12:25:54;;;;;;;24.57;22.87;;;;;;;;;;5035708;28;20425;-93
2021/08/10 12:28:21;;;;;;;24.07;22.47;;;;;;;;;;5034847;28;20944;-91
2021/08/10 12:30:48;;;;;;;23.23;21.70;;;;;;;;;;5036369;28;20435;-93
2021/08/10 12:33:23;;;;;;;23.90;22.30;;;;;;;;;;5036499;28;20453;-92
2021/08/10 12:36:05;;;;;;;23.80;22.20;;;;;;;;;;5035845;28;20467;-93
2021/08/10 12:38:32;;;;;;;22.90;21.50;;;;;;;;;;5036214;28;20474;-93
2021/08/10 12:41:02;;;;;;;23.33;21.83;;;;;;;;;;5035853;28;20441;-93
2021/08/10 12:43:29;;;;;;;22.73;21.23;;;;;;;;;;5035547;28;20428;-93
2021/08/10 12:45:57;;;;;;;22.00;20.70;;;;;;;;;;5037490;28;20426;-93
2021/08/10 12:48:25;;;;;;;22.77;21.33;;;;;;;;;;5037044;28;20430;-93
2021/08/10 12:50:55;;;;;;;23.20;21.80;;;;;;;;;;5038242;28;20557;-93
2021/08/10 12:53:26;;;;;;;22.63;21.33;;;;;;;;;;5035731;28;20520;-94
2021/08/10 12:55:55;;;;;;;23.57;21.97;;;;;;;;;;5034615;28;20455;-92
2021/08/10 12:58:24;;;;;;;23.03;21.43;;;;;;;;;;5034692;28;20439;-93
2021/08/10 13:00:58;;;;;;;24.07;22.47;;;;;;;;;;5035047;28;20944;-94
2021/08/10 13:03:26;;;;;;;24.00;22.50;;;;;;;;;;5035405;28;20428;-94
2021/08/10 13:05:55;;;;;;;21.80;20.50;;;;;;;;;;5035028;28;20415;-94
2021/08/10 13:08:24;;;;;;;22.47;21.07;;;;;;;;;;5035085;28;20441;-93
2021/08/10 13:10:51;;;;;;;23.80;22.20;;;;;;;;;;5034402;28;20485;-94
2021/08/10 13:13:28;;;;;;;22.37;20.90;;;;;;;;;;5035204;28;20493;-94
2021/08/10 13:15:56;;;;;;;23.10;21.60;;;;;;;;;;5034818;28;20454;-93
2021/08/10 13:18:25;;;;;;;22.33;20.87;;;;;;;;;;5034893;28;20471;-95
2021/08/10 13:20:54;;;;;;;24.10;22.20;;;;;;;;;;5035079;28;20459;-90
2021/08/10 13:23:21;;;;;;;23.97;22.37;;;;;;;;;;5034540;28;20456;-96
2021/08/10 13:25:57;;;;;;;23.50;21.90;;;;;;;;;;5035077;28;20470;-96
2021/08/10 13:28:25;;;;;;;24.30;22.70;;;;;;;;;;5034718;28;20476;-96
2021/08/10 13:31:08;;;;;;;22.30;20.80;;;;;;;;;;5034395;28;20456;-96
2021/08/10 13:33:49;;;;;;;24.33;22.60;;;;;;;;;;5034545;28;20411;-94
2021/08/10 13:36:16;;;;;;;21.70;20.50;;;;;;;;;;5035875;28;20794;-95
2021/08/10 13:38:43;;;;;;;21.53;20.23;;;;;;;;;;5035121;28;20474;-95
2021/08/10 13:41:11;;;;;;;23.10;21.70;;;;;;;;;;5034198;28;20427;-96
2021/08/10 13:43:38;;;;;;;22.50;21.00;;;;;;;;;;5034837;28;20462;-96
2021/08/10 13:46:07;;;;;;;23.10;21.70;;;;;;;;;;5035008;28;20418;-94
2021/08/10 13:48:35;;;;;;;22.40;21.00;;;;;;;;;;5033781;28;20442;-96
2021/08/10 13:51:02;;;;;;;23.10;21.70;;;;;;;;;;5034668;28;20923;-95
2021/08/10 13:53:29;;;;;;;22.40;21.10;;;;;;;;;;5034487;28;20427;-95
2021/08/10 13:55:58;;;;;;;24.90;23.30;;;;;;;;;;5034240;28;20417;-96
2021/08/10 13:58:25;;;;;;;22.40;21.00;;;;;;;;;;5034712;28;20426;-94
2021/08/10 14:00:53;;;;;;;22.93;21.20;;;;;;;;;;5034408;28;20449;-95
2021/08/10 14:03:22;;;;;;;22.93;21.63;;;;;;;;;;5034213;28;20463;-96
2021/08/10 14:05:49;;;;;;;23.73;22.23;;;;;;;;;;5034935;28;20804;-95
2021/08/10 14:08:17;;;;;;;23.40;21.93;;;;;;;;;;5034077;28;20437;-95
2021/08/10 14:10:44;;;;;;;22.90;21.50;;;;;;;;;;5036149;28;20795;-95
2021/08/10 14:13:11;;;;;;;22.37;20.97;;;;;;;;;;5038066;28;20459;-96
2021/08/10 14:15:39;;;;;;;22.83;21.47;;;;;;;;;;5038400;28;20443;-95
2021/08/10 14:18:06;;;;;;;23.70;22.20;;;;;;;;;;5038078;28;20510;-95
2021/08/10 14:20:35;;;;;;;22.00;20.63;;;;;;;;;;5038212;28;20501;-95
2021/08/10 14:23:02;;;;;;;23.40;22.00;;;;;;;;;;5038202;28;20426;-95
2021/08/10 14:25:30;;;;;;;23.30;21.90;;;;;;;;;;5038552;28;20466;-96
2021/08/10 14:27:57;;;;;;;22.10;20.90;;;;;;;;;;5038103;28;20459;-96